createdAt,value
2023-05-01T00:01:05.300Z,36.10
2023-05-01T00:03:06.937Z,32.65
2023-05-01T00:05:09.680Z,32.80
2023-05-01T00:07:14.237Z,32.60
2023-05-01T00:09:21.638Z,32.60
2023-05-01T00:11:26.163Z,32.50
2023-05-01T00:13:46.510Z,32.00
2023-05-01T00:15:48.141Z,31.35
2023-05-01T00:17:49.635Z,31.90
2023-05-01T00:19:51.782Z,29.92
2023-05-01T00:21:55.963Z,31.35
2023-05-01T00:24:17.061Z,30.67
2023-05-01T00:26:18.804Z,32.35
2023-05-01T00:28:20.249Z,29.15
2023-05-01T00:30:21.660Z,29.52
2023-05-01T00:32:26.441Z,29.00
2023-05-01T00:34:27.861Z,30.05
2023-05-01T00:36:29.537Z,30.05
2023-05-01T00:38:31.022Z,28.88
2023-05-01T00:40:45.352Z,28.67
2023-05-01T00:42:49.671Z,28.75
2023-05-01T00:44:51.164Z,28.80
2023-05-01T00:46:56.575Z,27.00
2023-05-01T00:48:58.599Z,27.08
2023-05-01T00:51:19.496Z,28.52
2023-05-01T00:53:43.160Z,27.80
2023-05-01T00:55:45.179Z,26.88
2023-05-01T00:57:50.111Z,24.50
2023-05-01T00:59:54.600Z,24.27
2023-05-01T01:01:59.024Z,23.98
2023-05-01T01:04:02.896Z,23.77
2023-05-01T01:06:10.404Z,24.80
2023-05-01T01:08:37.624Z,21.25
2023-05-01T01:11:01.840Z,23.50
2023-05-01T01:13:28.108Z,23.98
2023-05-01T01:15:45.721Z,23.90
2023-05-01T01:18:18.708Z,23.13
2023-05-01T01:20:30.499Z,24.20
2023-05-01T01:22:46.955Z,24.23
2023-05-01T01:24:59.124Z,22.63
2023-05-01T01:27:33.680Z,22.38
2023-05-01T01:29:43.443Z,24.75
2023-05-01T01:32:06.363Z,23.17
2023-05-01T01:34:18.988Z,23.90
2023-05-01T01:36:39.120Z,21.88
2023-05-01T01:38:55.057Z,22.00
2023-05-01T01:41:07.286Z,23.42
2023-05-01T01:43:17.053Z,24.63
2023-05-01T01:45:27.504Z,24.65
2023-05-01T01:47:33.552Z,22.65
2023-05-01T01:49:40.522Z,23.85
2023-05-01T01:52:02.759Z,22.42
2023-05-01T01:54:04.426Z,22.77
2023-05-01T01:56:09.292Z,21.48
2023-05-01T01:58:16.053Z,22.95
2023-05-01T02:00:20.698Z,23.50
2023-05-01T02:02:27.189Z,21.20
2023-05-01T02:04:29.140Z,22.63
2023-05-01T02:06:34.195Z,19.90
2023-05-01T02:08:37.731Z,22.52
2023-05-01T02:10:43.246Z,19.23
2023-05-01T02:13:03.265Z,21.60
2023-05-01T02:15:06.534Z,19.75
2023-05-01T02:17:10.705Z,20.10
2023-05-01T02:19:14.581Z,18.02
2023-05-01T02:21:19.535Z,16.60
2023-05-01T02:23:21.275Z,17.10
2023-05-01T02:25:27.376Z,15.02
2023-05-01T02:27:35.920Z,18.05
2023-05-01T02:29:40.597Z,14.35
2023-05-01T02:31:44.767Z,15.02
2023-05-01T02:33:46.168Z,14.07
2023-05-01T02:37:51.806Z,12.70
2023-05-01T02:39:56.024Z,12.63
2023-05-01T02:42:03.596Z,12.57
2023-05-01T02:44:06.530Z,13.35
2023-05-01T02:46:10.542Z,11.40
2023-05-01T02:50:17.140Z,11.48
2023-05-01T02:52:19.770Z,12.02
2023-05-01T02:54:23.983Z,11.60
2023-05-01T02:56:44.145Z,9.82
2023-05-01T02:58:49.501Z,10.50
2023-05-01T03:00:51.025Z,11.10
2023-05-01T03:02:55.640Z,9.63
2023-05-01T03:04:57.178Z,8.75
2023-05-01T03:07:17.632Z,9.85
2023-05-01T03:09:22.174Z,10.18
2023-05-01T03:11:24.381Z,11.38
2023-05-01T03:13:26.285Z,10.60
2023-05-01T03:15:30.455Z,9.30
2023-05-01T03:17:50.818Z,8.95
2023-05-01T03:19:56.254Z,10.50
2023-05-01T03:22:16.482Z,8.20
2023-05-01T03:24:36.342Z,8.25
2023-05-01T03:28:41.850Z,7.50
2023-05-01T03:30:44.334Z,7.55
2023-05-01T03:32:45.888Z,6.05
2023-05-01T03:34:47.795Z,7.45
2023-05-01T03:36:49.249Z,6.60
2023-05-01T03:38:51.075Z,8.13
2023-05-01T03:41:11.220Z,7.95
2023-05-01T03:43:12.668Z,6.85
2023-05-01T03:45:14.146Z,5.97
2023-05-01T03:47:34.874Z,5.78
2023-05-01T03:49:39.214Z,6.80
2023-05-01T03:51:40.774Z,6.25
2023-05-01T03:53:42.350Z,6.63
2023-05-01T03:57:48.014Z,7.10
2023-05-01T03:59:49.752Z,7.05
2023-05-01T04:01:51.334Z,5.88
2023-05-01T04:03:55.949Z,7.35
2023-05-01T04:05:57.607Z,4.57
2023-05-01T04:07:59.188Z,5.28
2023-05-01T04:10:00.602Z,3.97
2023-05-01T04:12:04.300Z,4.50
2023-05-01T04:14:21.487Z,3.85
2023-05-01T04:16:48.500Z,3.50
2023-05-01T04:19:17.639Z,2.97
2023-05-01T04:21:45.352Z,3.38
2023-05-01T04:24:04.255Z,2.88
2023-05-01T04:26:16.807Z,3.75
2023-05-01T04:28:42.784Z,3.40
2023-05-01T04:31:06.670Z,4.68
2023-05-01T04:33:23.705Z,4.60
2023-05-01T04:35:56.801Z,4.40
2023-05-01T04:38:06.019Z,4.32
2023-05-01T04:40:39.644Z,5.53
2023-05-01T04:42:53.398Z,4.78
2023-05-01T04:45:28.406Z,5.00
2023-05-01T04:47:39.180Z,5.10
2023-05-01T04:49:42.913Z,4.72
2023-05-01T04:51:44.468Z,4.88
2023-05-01T04:53:48.789Z,5.10
2023-05-01T04:55:53.172Z,4.38
2023-05-01T04:57:54.723Z,5.20
2023-05-01T04:59:59.510Z,5.10
2023-05-01T05:02:04.341Z,5.35
2023-05-01T05:04:24.694Z,4.43
2023-05-01T05:06:29.119Z,5.05
2023-05-01T05:08:33.400Z,4.95
2023-05-01T05:10:34.883Z,4.55
2023-05-01T05:12:39.518Z,5.50
2023-05-01T05:14:41.518Z,5.90
2023-05-01T05:16:43.096Z,5.18
2023-05-01T05:18:47.639Z,6.00
2023-05-01T05:21:08.128Z,4.57
2023-05-01T05:23:09.673Z,4.90
2023-05-01T05:25:11.297Z,6.93
2023-05-01T05:27:16.135Z,4.57
2023-05-01T05:29:17.534Z,6.03
2023-05-01T05:31:37.755Z,5.45
2023-05-01T05:33:39.366Z,5.60
2023-05-01T05:35:41.067Z,4.57
2023-05-01T05:37:46.175Z,5.45
2023-05-01T05:39:47.781Z,4.88
2023-05-01T05:43:55.518Z,5.10
2023-05-01T05:45:57.615Z,4.65
2023-05-01T05:48:17.737Z,4.55
2023-05-01T05:50:37.705Z,3.65
2023-05-01T05:52:42.649Z,5.00
2023-05-01T05:54:44.344Z,5.15
2023-05-01T05:56:48.438Z,4.97
2023-05-01T05:58:49.987Z,4.20
2023-05-01T06:00:55.892Z,4.15
2023-05-01T06:02:58.065Z,4.47
2023-05-01T06:04:59.705Z,5.05
2023-05-01T06:09:05.566Z,4.45
2023-05-01T06:11:08.566Z,5.00
2023-05-01T06:13:14.717Z,4.78
2023-05-01T06:15:16.942Z,5.47
2023-05-01T06:17:21.015Z,4.93
2023-05-01T06:19:22.482Z,4.97
2023-05-01T06:21:23.921Z,6.93
2023-05-01T06:23:44.144Z,4.97
2023-05-01T06:27:51.152Z,4.18
2023-05-01T06:29:55.357Z,4.55
2023-05-01T06:31:57.092Z,4.30
2023-05-01T06:33:58.569Z,4.03
2023-05-01T06:36:00.200Z,4.30
2023-05-01T06:38:04.978Z,4.47
2023-05-01T06:40:07.804Z,4.55
2023-05-01T06:42:15.983Z,4.43
2023-05-01T06:44:20.125Z,4.28
2023-05-01T06:46:24.362Z,3.47
2023-05-01T06:48:25.940Z,4.00
2023-05-01T06:52:34.321Z,3.85
2023-05-01T06:56:43.179Z,3.67
2023-05-01T06:58:47.419Z,4.53
2023-05-01T07:00:48.935Z,3.97
2023-05-01T07:02:50.872Z,4.20
2023-05-01T07:04:53.419Z,3.72
2023-05-01T07:06:54.852Z,4.47
2023-05-01T07:11:00.164Z,4.25
2023-05-01T07:13:04.605Z,3.80
2023-05-01T07:15:06.428Z,4.38
2023-05-01T07:17:10.554Z,4.13
2023-05-01T07:19:17.405Z,3.70
2023-05-01T07:21:20.522Z,4.55
2023-05-01T07:23:23.711Z,4.45
2023-05-01T07:25:25.158Z,3.38
2023-05-01T07:27:26.746Z,3.80
2023-05-01T07:29:28.247Z,3.55
2023-05-01T07:31:32.392Z,2.88
2023-05-01T07:33:54.246Z,2.92
2023-05-01T07:35:56.675Z,4.00
2023-05-01T07:38:00.920Z,3.53
2023-05-01T07:40:02.592Z,2.72
2023-05-01T07:42:04.800Z,2.70
2023-05-01T07:44:06.416Z,2.60
2023-05-01T07:46:07.974Z,2.70
2023-05-01T07:48:12.220Z,2.63
2023-05-01T07:50:17.242Z,2.97
2023-05-01T07:52:21.917Z,2.85
2023-05-01T07:54:27.620Z,4.07
2023-05-01T07:56:32.161Z,4.47
2023-05-01T07:58:33.648Z,3.40
2023-05-01T08:00:38.149Z,2.60
2023-05-01T08:02:42.437Z,3.72
2023-05-01T08:04:44.134Z,3.05
2023-05-01T08:06:50.259Z,3.55
2023-05-01T08:08:52.004Z,3.58
2023-05-01T08:10:56.479Z,3.63
2023-05-01T08:13:00.823Z,3.42
2023-05-01T08:15:02.271Z,3.60
2023-05-01T08:17:06.541Z,3.67
2023-05-01T08:19:08.045Z,3.47
2023-05-01T08:21:10.388Z,4.68
2023-05-01T08:23:11.901Z,3.58
2023-05-01T08:25:15.943Z,4.38
2023-05-01T08:27:17.565Z,4.57
2023-05-01T08:29:24.807Z,3.28
2023-05-01T08:31:29.432Z,5.72
2023-05-01T08:33:30.903Z,4.40
2023-05-01T08:35:32.401Z,4.00
2023-05-01T08:37:34.146Z,4.47
2023-05-01T08:39:38.365Z,4.28
2023-05-01T08:41:40.038Z,4.65
2023-05-01T08:43:41.699Z,5.25
2023-05-01T08:45:43.353Z,4.68
2023-05-01T08:47:47.708Z,4.82
2023-05-01T08:49:51.208Z,4.90
2023-05-01T08:51:53.150Z,5.35
2023-05-01T08:53:58.214Z,5.20
2023-05-01T08:56:00.245Z,4.72
2023-05-01T08:58:06.943Z,4.97
2023-05-01T09:02:15.003Z,4.80
2023-05-01T09:04:19.642Z,5.18
2023-05-01T09:06:21.525Z,4.55
2023-05-01T09:08:23.302Z,4.35
2023-05-01T09:10:27.463Z,3.97
2023-05-01T09:12:49.546Z,4.25
2023-05-01T09:14:54.881Z,4.43
2023-05-01T09:16:59.303Z,4.30
2023-05-01T09:19:01.142Z,4.10
2023-05-01T09:21:06.202Z,3.78
2023-05-01T09:23:26.213Z,3.97
2023-05-01T09:25:36.634Z,4.38
2023-05-01T09:27:41.220Z,4.57
2023-05-01T09:29:48.581Z,5.22
2023-05-01T09:31:50.164Z,4.32
2023-05-01T09:33:55.945Z,4.75
2023-05-01T09:36:00.267Z,4.47
2023-05-01T09:38:01.881Z,5.03
2023-05-01T09:40:26.926Z,4.82
2023-05-01T09:42:28.361Z,6.45
2023-05-01T09:44:40.438Z,6.40
2023-05-01T09:46:42.407Z,6.30
2023-05-01T09:49:03.209Z,6.72
2023-05-01T09:51:22.051Z,5.90
2023-05-01T09:53:42.474Z,5.38
2023-05-01T09:56:03.166Z,6.10
2023-05-01T09:58:07.815Z,5.75
2023-05-01T10:00:10.349Z,5.20
2023-05-01T10:02:28.480Z,5.70
2023-05-01T10:04:30.911Z,5.22
2023-05-01T10:06:35.363Z,4.18
2023-05-01T10:08:49.613Z,4.00
2023-05-01T10:11:02.706Z,3.17
2023-05-01T10:13:14.485Z,3.05
2023-05-01T10:15:25.501Z,3.42
2023-05-01T10:17:31.299Z,2.80
2023-05-01T10:19:32.936Z,2.75
2023-05-01T10:21:53.486Z,2.17
2023-05-01T10:23:59.057Z,2.85
2023-05-01T10:26:05.277Z,3.92
2023-05-01T10:28:11.660Z,2.55
2023-05-01T10:30:18.846Z,2.95
2023-05-01T10:32:25.549Z,2.60
2023-05-01T10:34:32.439Z,2.33
2023-05-01T10:36:39.280Z,2.15
2023-05-01T10:38:41.361Z,2.95
2023-05-01T10:40:46.888Z,2.38
2023-05-01T10:43:06.848Z,1.80
2023-05-01T10:45:29.154Z,2.08
2023-05-01T10:47:34.855Z,2.03
2023-05-01T10:49:57.723Z,2.50
2023-05-01T10:52:01.256Z,2.33
2023-05-01T10:54:14.385Z,1.77
2023-05-01T10:56:27.917Z,1.88
2023-05-01T10:58:52.985Z,2.20
2023-05-01T11:01:20.536Z,2.10
2023-05-01T11:03:24.233Z,2.20
2023-05-01T11:05:49.230Z,1.85
2023-05-01T11:08:17.004Z,1.88
2023-05-01T11:10:27.605Z,1.77
2023-05-01T11:12:47.141Z,1.50
2023-05-01T11:15:09.577Z,2.20
2023-05-01T11:17:11.605Z,1.95
2023-05-01T11:19:21.901Z,1.80
2023-05-01T11:21:34.192Z,2.15
2023-05-01T11:23:38.572Z,1.48
2023-05-01T11:25:40.340Z,1.35
2023-05-01T11:27:51.905Z,1.45
2023-05-01T11:29:54.106Z,1.00
2023-05-01T11:31:55.768Z,1.13
2023-05-01T11:33:58.229Z,1.13
2023-05-01T11:36:00.486Z,0.98
2023-05-01T11:38:05.486Z,0.93
2023-05-01T11:40:18.458Z,1.15
2023-05-01T11:42:21.346Z,1.20
2023-05-01T11:44:25.805Z,1.02
2023-05-01T11:46:45.751Z,1.33
2023-05-01T11:48:53.547Z,1.25
2023-05-01T11:50:58.075Z,0.80
2023-05-01T11:53:18.709Z,0.73
2023-05-01T11:55:21.974Z,0.80
2023-05-01T11:57:26.430Z,0.93
2023-05-01T11:59:32.626Z,0.82
2023-05-01T12:01:38.473Z,0.60
2023-05-01T12:03:45.486Z,0.60
2023-05-01T12:05:51.534Z,0.50
2023-05-01T12:08:05.542Z,0.70
2023-05-01T12:10:25.882Z,0.70
2023-05-01T12:12:29.348Z,0.63
2023-05-01T12:14:35.767Z,0.40
2023-05-01T12:16:41.933Z,0.50
2023-05-01T12:18:47.021Z,0.50
2023-05-01T12:20:52.762Z,0.80
2023-05-01T12:23:04.356Z,0.55
2023-05-01T12:25:26.210Z,0.43
2023-05-01T12:27:48.585Z,0.90
2023-05-01T12:29:52.059Z,0.50
2023-05-01T12:31:56.431Z,0.70
2023-05-01T12:34:02.523Z,0.60
2023-05-01T12:36:13.076Z,0.57
2023-05-01T12:38:18.214Z,0.97
2023-05-01T12:40:22.958Z,0.55
2023-05-01T12:42:24.618Z,0.65
2023-05-01T12:44:27.367Z,0.93
2023-05-01T12:46:29.326Z,0.40
2023-05-01T12:48:39.054Z,0.57
2023-05-01T12:50:44.762Z,0.40
2023-05-01T12:52:50.255Z,0.80
2023-05-01T12:55:01.666Z,1.05
2023-05-01T12:57:07.892Z,0.70
2023-05-01T12:59:22.957Z,0.68
2023-05-01T13:01:42.825Z,1.00
2023-05-01T13:03:47.062Z,1.08
2023-05-01T13:05:49.965Z,0.75
2023-05-01T13:07:54.363Z,0.90
2023-05-01T13:10:14.878Z,0.80
2023-05-01T13:12:16.422Z,0.88
2023-05-01T13:14:17.877Z,0.80
2023-05-01T13:16:20.274Z,0.80
2023-05-01T13:18:24.629Z,0.60
2023-05-01T13:20:29.065Z,0.90
2023-05-01T13:22:37.279Z,1.60
2023-05-01T13:24:39.550Z,1.42
2023-05-01T13:26:45.152Z,0.88
2023-05-01T13:28:49.828Z,0.80
2023-05-01T13:30:56.756Z,1.08
2023-05-01T13:33:04.760Z,0.80
2023-05-01T13:35:09.785Z,0.70
2023-05-01T13:37:14.080Z,0.47
2023-05-01T13:39:21.012Z,0.80
2023-05-01T13:41:24.351Z,0.57
2023-05-01T13:43:25.912Z,0.70
2023-05-01T13:45:30.388Z,1.10
2023-05-01T13:47:33.752Z,1.00
2023-05-01T13:49:42.325Z,0.95
2023-05-01T13:51:44.781Z,0.52
2023-05-01T13:53:49.312Z,0.95
2023-05-01T13:55:53.756Z,0.75
2023-05-01T13:57:59.015Z,0.77
2023-05-01T14:00:04.956Z,0.82
2023-05-01T14:02:22.914Z,0.65
2023-05-01T14:04:44.250Z,0.60
2023-05-01T14:06:52.192Z,0.77
2023-05-01T14:09:00.002Z,1.17
2023-05-01T14:11:04.613Z,0.55
2023-05-01T14:13:06.096Z,0.57
2023-05-01T14:15:13.970Z,0.40
2023-05-01T14:17:16.070Z,0.60
2023-05-01T14:19:36.259Z,0.80
2023-05-01T14:21:40.061Z,0.50
2023-05-01T14:23:44.311Z,0.80
2023-05-01T14:25:48.806Z,1.05
2023-05-01T14:27:54.108Z,1.08
2023-05-01T14:29:55.837Z,0.70
2023-05-01T14:32:03.816Z,0.73
2023-05-01T14:34:08.253Z,0.90
2023-05-01T14:36:14.175Z,1.20
2023-05-01T14:38:16.667Z,1.50
2023-05-01T14:40:22.200Z,1.75
2023-05-01T14:42:23.718Z,0.90
2023-05-01T14:44:26.466Z,1.00
2023-05-01T14:46:31.462Z,0.80
2023-05-01T14:48:37.084Z,0.40
2023-05-01T14:50:38.794Z,0.50
2023-05-01T14:52:40.313Z,0.93
2023-05-01T14:54:45.433Z,0.70
2023-05-01T14:56:50.028Z,0.40
2023-05-01T14:58:54.498Z,0.40
2023-05-01T15:00:56.012Z,0.70
2023-05-01T15:02:58.765Z,0.60
2023-05-01T15:05:03.356Z,0.45
2023-05-01T15:07:07.876Z,0.20
2023-05-01T15:09:09.769Z,0.50
2023-05-01T15:11:13.046Z,0.60
2023-05-01T15:13:17.037Z,0.30
2023-05-01T15:15:21.382Z,0.20
2023-05-01T15:17:24.348Z,0.63
2023-05-01T15:19:44.271Z,0.50
2023-05-01T15:21:48.456Z,0.40
2023-05-01T15:23:53.251Z,0.30
2023-05-01T15:25:56.211Z,0.35
2023-05-01T15:27:59.154Z,0.37
2023-05-01T15:30:05.330Z,0.50
2023-05-01T15:32:12.353Z,0.50
2023-05-01T15:34:15.073Z,0.28
2023-05-01T15:36:27.010Z,1.10
2023-05-01T15:38:28.577Z,0.40
2023-05-01T16:23:38.315Z,0.32
2023-05-01T16:26:07.393Z,0.40
2023-05-01T16:28:18.033Z,0.30
2023-05-01T16:30:33.820Z,0.40
2023-05-01T16:32:54.092Z,0.38
2023-05-01T16:34:59.349Z,0.30
2023-05-01T16:37:00.755Z,0.55
2023-05-01T16:39:16.958Z,0.50
2023-05-01T16:41:24.998Z,0.40
2023-05-01T16:43:26.777Z,0.55
2023-05-01T16:45:28.388Z,0.30
2023-05-01T16:47:31.980Z,0.22
2023-05-01T16:49:39.868Z,0.20
2023-05-01T16:51:44.388Z,0.30
2023-05-01T16:53:48.520Z,0.30
2023-05-01T16:55:53.251Z,0.20
2023-05-01T16:57:59.185Z,0.35
2023-05-01T17:00:03.060Z,0.20
2023-05-01T17:02:06.592Z,0.88
2023-05-01T17:04:11.885Z,0.22
2023-05-01T17:06:18.010Z,0.20
2023-05-01T17:08:38.553Z,0.38
2023-05-01T17:10:40.120Z,0.30
2023-05-01T17:12:41.630Z,0.40
2023-05-01T17:14:43.046Z,0.32
2023-05-01T17:16:45.782Z,0.40
2023-05-01T17:18:52.309Z,0.40
2023-05-01T17:21:01.419Z,0.40
2023-05-01T17:23:05.763Z,0.30
2023-05-01T17:25:07.500Z,0.40
2023-05-01T17:27:12.900Z,0.30
2023-05-01T17:29:36.373Z,0.50
2023-05-01T17:31:41.070Z,0.45
2023-05-01T17:33:46.945Z,0.38
2023-05-01T17:35:48.599Z,0.50
2023-05-01T17:37:49.972Z,0.40
2023-05-01T17:39:51.470Z,0.60
2023-05-01T17:41:55.775Z,0.20
2023-05-01T17:44:01.747Z,0.20
2023-05-01T17:46:05.918Z,0.20
2023-05-01T17:48:11.055Z,0.50
2023-05-01T17:50:15.449Z,0.28
2023-05-01T17:52:19.685Z,0.45
2023-05-01T17:54:21.584Z,0.50
2023-05-01T17:56:23.098Z,0.60
2023-05-01T17:58:24.560Z,0.50
2023-05-01T18:00:28.875Z,0.38
2023-05-01T18:02:33.944Z,0.30
2023-05-01T18:04:36.209Z,0.22
2023-05-01T18:06:40.138Z,0.60
2023-05-01T18:08:44.732Z,0.60
2023-05-01T18:10:46.176Z,0.28
2023-05-01T18:12:49.864Z,0.20
2023-05-01T18:14:54.340Z,0.20
2023-05-01T18:17:15.240Z,0.30
2023-05-01T18:19:19.506Z,0.38
2023-05-01T18:21:39.854Z,0.47
2023-05-01T18:23:45.443Z,0.40
2023-05-01T18:25:47.845Z,0.55
2023-05-01T18:27:52.285Z,0.50
2023-05-01T18:29:54.892Z,1.63
2023-05-01T18:31:56.622Z,1.20
2023-05-01T18:34:01.607Z,0.40
2023-05-01T18:36:03.291Z,0.43
2023-05-01T18:38:04.749Z,0.50
2023-05-01T18:40:10.342Z,0.60
2023-05-01T18:42:15.772Z,0.77
2023-05-01T18:44:17.560Z,0.85
2023-05-01T18:46:19.109Z,0.70
2023-05-01T18:48:22.269Z,1.13
2023-05-01T18:50:23.933Z,0.55
2023-05-01T18:52:25.388Z,0.40
2023-05-01T18:54:29.875Z,0.50
2023-05-01T18:56:31.500Z,0.65
2023-05-01T18:58:35.771Z,0.57
2023-05-01T19:00:55.954Z,0.70
2023-05-01T19:03:02.266Z,1.13
2023-05-01T19:05:04.352Z,0.60
2023-05-01T19:07:09.998Z,0.60
2023-05-01T19:09:11.550Z,0.60
2023-05-01T19:11:13.085Z,0.90
2023-05-01T19:13:17.107Z,0.50
2023-05-01T19:15:21.521Z,1.02
2023-05-01T19:17:27.075Z,0.80
2023-05-01T19:19:31.727Z,0.80
2023-05-01T19:21:33.487Z,1.00
2023-05-01T19:23:37.380Z,0.90
2023-05-01T19:25:41.546Z,1.10
2023-05-01T19:27:43.025Z,1.38
2023-05-01T19:29:44.769Z,0.93
2023-05-01T19:31:49.383Z,1.70
2023-05-01T19:33:55.142Z,1.58
2023-05-01T19:35:56.938Z,1.20
2023-05-01T19:37:58.888Z,1.23
2023-05-01T19:40:04.369Z,1.70
2023-05-01T19:42:11.854Z,1.23
2023-05-01T19:44:14.089Z,1.08
2023-05-01T19:46:17.710Z,1.23
2023-05-01T19:48:25.692Z,1.10
2023-05-01T19:50:34.556Z,1.00
2023-05-01T19:52:38.356Z,0.80
2023-05-01T19:54:45.783Z,1.20
2023-05-01T19:56:52.767Z,0.85
2023-05-01T19:58:59.209Z,1.10
2023-05-01T20:01:09.085Z,0.85
2023-05-01T20:03:12.834Z,0.80
2023-05-01T20:05:19.197Z,1.50
2023-05-01T20:07:40.723Z,0.80
2023-05-01T20:09:44.123Z,1.30
2023-05-01T20:11:47.824Z,2.35
2023-05-01T20:14:09.454Z,5.40
2023-05-01T20:16:16.097Z,8.10
2023-05-01T20:18:23.196Z,3.17
2023-05-01T20:20:25.252Z,2.35
2023-05-01T20:22:26.674Z,1.27
2023-05-01T20:24:31.650Z,1.17
2023-05-01T20:26:36.293Z,1.25
2023-05-01T20:28:37.825Z,1.02
2023-05-01T20:30:58.132Z,1.17
2023-05-01T20:32:59.889Z,1.00
2023-05-01T20:35:05.517Z,0.85
2023-05-01T20:37:25.928Z,0.98
2023-05-01T20:39:30.231Z,0.70
2023-05-01T20:43:38.812Z,1.35
2023-05-01T20:45:42.891Z,0.85
2023-05-01T20:47:44.364Z,0.90
2023-05-01T20:49:49.090Z,1.13
2023-05-01T20:51:53.143Z,1.27
2023-05-01T20:54:13.209Z,1.05
2023-05-01T20:56:14.718Z,1.83
2023-05-01T20:58:16.260Z,1.60
2023-05-01T21:00:20.700Z,1.05
2023-05-01T21:02:22.160Z,1.13
2023-05-01T21:04:26.659Z,2.28
2023-05-01T21:06:31.661Z,1.30
2023-05-01T21:08:33.332Z,1.35
2023-05-01T21:10:35.415Z,1.40
2023-05-01T21:12:40.009Z,1.45
2023-05-01T21:14:41.625Z,1.40
2023-05-01T21:16:43.102Z,1.30
2023-05-01T21:18:47.563Z,1.20
2023-05-01T21:20:51.866Z,0.77
2023-05-01T21:22:53.350Z,0.88
2023-05-01T21:24:58.581Z,0.90
2023-05-01T21:27:01.611Z,0.90
2023-05-01T21:29:05.945Z,1.25
2023-05-01T21:31:08.763Z,1.75
2023-05-01T21:33:14.432Z,0.75
2023-05-01T21:35:17.979Z,1.42
2023-05-01T21:37:23.659Z,1.08
2023-05-01T21:39:43.945Z,0.90
2023-05-01T21:42:04.861Z,1.02
2023-05-01T21:44:09.530Z,0.95
2023-05-01T21:46:15.444Z,1.00
2023-05-01T21:48:17.814Z,1.00
2023-05-01T21:50:19.934Z,0.90
2023-05-01T21:52:21.769Z,1.05
2023-05-01T21:54:23.217Z,1.40
2023-05-01T21:56:24.909Z,0.93
2023-05-01T21:58:44.586Z,1.10
2023-05-01T22:02:51.234Z,0.98
2023-05-01T22:04:55.727Z,0.80
2023-05-01T22:06:57.153Z,0.90
2023-05-01T22:11:06.572Z,0.95
2023-05-01T22:13:12.374Z,1.23
2023-05-01T22:15:15.499Z,1.20
2023-05-01T22:17:23.990Z,1.45
2023-05-01T22:19:28.436Z,1.30
2023-05-01T22:21:32.805Z,1.30
2023-05-01T22:25:41.353Z,1.27
2023-05-01T22:27:45.658Z,1.38
2023-05-01T22:29:49.730Z,1.20
2023-05-01T22:31:51.248Z,1.17
2023-05-01T22:34:11.409Z,1.25
2023-05-01T22:38:19.563Z,1.00
2023-05-01T22:40:21.253Z,0.80
2023-05-01T22:42:23.364Z,1.48
2023-05-01T22:44:27.641Z,1.05
2023-05-01T22:46:31.935Z,1.25
2023-05-01T22:48:52.344Z,1.05
2023-05-01T22:50:53.872Z,1.70
2023-05-01T22:52:58.083Z,1.40
2023-05-01T22:54:59.582Z,1.55
2023-05-01T22:57:01.162Z,0.98
2023-05-01T22:59:02.694Z,0.77
2023-05-01T23:01:04.424Z,1.40
2023-05-01T23:03:06.455Z,1.60
2023-05-01T23:05:11.531Z,1.20
2023-05-01T23:07:13.635Z,1.52
2023-05-01T23:09:17.881Z,1.52
2023-05-01T23:11:21.417Z,1.45
2023-05-01T23:13:27.284Z,1.20
2023-05-01T23:15:28.852Z,1.17
2023-05-01T23:17:39.807Z,1.10
2023-05-01T23:19:43.316Z,1.60
2023-05-01T23:21:48.032Z,1.30
2023-05-01T23:23:52.666Z,1.35
2023-05-01T23:25:54.731Z,1.40
2023-05-01T23:27:59.146Z,1.33
2023-05-01T23:30:00.999Z,1.58
2023-05-01T23:32:28.561Z,1.35
2023-05-01T23:34:32.768Z,1.15
2023-05-01T23:36:37.053Z,1.20
2023-05-01T23:38:41.832Z,1.23
2023-05-01T23:40:44.072Z,1.30
2023-05-01T23:42:48.861Z,1.50
2023-05-01T23:44:53.037Z,2.00
2023-05-01T23:46:54.597Z,1.60
2023-05-01T23:49:14.818Z,1.67
2023-05-01T23:51:16.221Z,1.52
2023-05-01T23:53:17.607Z,2.22
2023-05-01T23:55:18.984Z,1.90
2023-05-01T23:59:24.325Z,1.25
